Time;durP1;ratioP1;P1;durP2;ratioP2;P2;SDS_P1;SDS_P2;PMS_P1;PMS_P2;Temp;Humidity;BMP_temperature;BMP_pressure;BME280_temperature;BME280_humidity;BME280_pressure;Samples;Min_cycle;Max_cycle;Signal;HPM_P1;HPM_P2
2023/07/21 00:00:15;;;;;;;;;;;;;;;30.64;40.81;100368.61;101835;1308;64978;-81
2023/07/21 00:02:41;;;;;;;;;;;;;;;30.64;40.84;100369.90;101959;1307;66829;-81
2023/07/21 00:05:07;;;;;;;;;;;;;;;30.64;40.85;100368.30;101798;1309;61364;-81
2023/07/21 00:07:32;;;;;;;;;;;;;;;30.64;40.86;100367.92;101825;1303;61524;-81
2023/07/21 00:09:59;;;;;;;;;;;;;;;30.64;40.89;100368.64;101783;1303;62098;-81
2023/07/21 00:12:25;;;;;;;;;;;;;;;30.64;40.88;100371.37;101780;1308;61923;-81
2023/07/21 00:14:51;;;;;;;;;;;;;;;30.64;40.82;100377.73;101809;1303;61381;-81
2023/07/21 00:17:17;;;;;;;;;;;;;;;30.63;40.85;100379.23;101909;1303;61578;-81
2023/07/21 00:19:44;;;;;;;;;;;;;;;30.63;40.92;100378.34;101773;1308;62590;-81
2023/07/21 00:22:10;;;;;;;;;;;;;;;30.63;41.07;100378.20;101721;1302;61413;-81
2023/07/21 00:24:35;;;;;;;;;;;;;;;30.63;40.91;100373.65;101870;1308;62436;-81
2023/07/21 00:27:02;;;;;;;;;;;;;;;30.63;41.08;100372.73;101721;1310;61369;-81
2023/07/21 00:29:29;;;;;;;;;;;;;;;30.63;40.99;100372.91;101842;1306;61521;-81
2023/07/21 00:31:54;;;;;;;;;;;;;;;30.63;40.97;100369.15;101891;1307;64952;-81
2023/07/21 00:34:24;;;;;;;;;;;;;;;30.62;40.94;100367.22;101919;1308;61415;-81
2023/07/21 00:36:51;;;;;;;;;;;;;;;30.62;40.96;100365.76;101761;1308;61413;-81
2023/07/21 00:39:16;;;;;;;;;;;;;;;30.62;41.03;100366.83;101798;1303;61435;-81
2023/07/21 00:41:42;;;;;;;;;;;;;;;30.62;40.92;100361.30;101887;1306;61866;-81
2023/07/21 00:44:09;;;;;;;;;;;;;;;30.62;41.09;100365.45;101814;1308;61442;-81
2023/07/21 00:46:35;;;;;;;;;;;;;;;30.62;40.96;100363.61;101774;1303;61814;-81
2023/07/21 00:49:02;;;;;;;;;;;;;;;30.62;41.00;100367.96;101809;1303;61480;-81
2023/07/21 00:51:27;;;;;;;;;;;;;;;30.62;41.05;100367.63;101816;1308;62656;-83
2023/07/21 00:53:54;;;;;;;;;;;;;;;30.62;41.03;100368.01;101781;1308;61348;-82
2023/07/21 00:56:19;;;;;;;;;;;;;;;30.61;41.08;100367.89;101791;1308;61933;-82
2023/07/21 00:58:45;;;;;;;;;;;;;;;30.61;41.02;100369.89;101882;1306;62646;-81
2023/07/21 01:01:10;;;;;;;;;;;;;;;30.61;41.13;100367.20;101804;1308;61348;-81
2023/07/21 01:03:35;;;;;;;;;;;;;;;30.60;41.10;100364.86;101736;1303;62681;-81
2023/07/21 01:06:02;;;;;;;;;;;;;;;30.61;41.08;100367.37;101820;1308;61449;-81
2023/07/21 01:08:28;;;;;;;;;;;;;;;30.60;41.11;100369.25;101827;1303;62613;-81
2023/07/21 01:10:53;;;;;;;;;;;;;;;30.60;41.13;100370.88;101903;1303;61416;-81
2023/07/21 01:13:18;;;;;;;;;;;;;;;30.61;41.17;100369.04;101789;1306;62211;-81
2023/07/21 01:15:46;;;;;;;;;;;;;;;30.61;41.11;100373.40;101783;1307;61434;-81
2023/07/21 01:18:14;;;;;;;;;;;;;;;30.60;41.18;100374.52;101862;1307;66574;-81
2023/07/21 01:20:39;;;;;;;;;;;;;;;30.60;41.20;100376.16;101888;1306;61330;-81
2023/07/21 01:23:06;;;;;;;;;;;;;;;30.60;41.13;100376.92;101827;1308;61438;-81
2023/07/21 01:25:32;;;;;;;;;;;;;;;30.59;41.22;100377.15;101855;1308;61432;-81
2023/07/21 01:27:58;;;;;;;;;;;;;;;30.60;41.06;100376.40;101708;1309;62679;-81
2023/07/21 01:30:23;;;;;;;;;;;;;;;30.59;41.15;100379.48;101869;1303;61406;-81
2023/07/21 01:32:49;;;;;;;;;;;;;;;30.59;41.26;100383.64;101851;1303;61417;-81
2023/07/21 01:35:16;;;;;;;;;;;;;;;30.59;41.20;100386.98;101843;1308;62468;-81
2023/07/21 01:37:42;;;;;;;;;;;;;;;30.59;41.15;100391.19;101757;1305;61435;-81
2023/07/21 01:40:08;;;;;;;;;;;;;;;30.59;41.19;100389.38;101936;1307;61442;-81
2023/07/21 01:42:34;;;;;;;;;;;;;;;30.59;41.14;100391.55;101805;1309;61383;-81
2023/07/21 01:45:03;;;;;;;;;;;;;;;30.59;41.11;100395.54;101857;1308;61928;-82
2023/07/21 01:47:31;;;;;;;;;;;;;;;30.58;41.30;100398.13;101833;1305;64043;-82
2023/07/21 01:49:57;;;;;;;;;;;;;;;30.58;41.23;100400.73;101804;1303;65891;-81
2023/07/21 01:52:23;;;;;;;;;;;;;;;30.59;41.23;100402.28;101791;1303;62098;-81
2023/07/21 01:54:52;;;;;;;;;;;;;;;30.58;41.13;100400.90;101827;1303;61928;-81
2023/07/21 01:57:20;;;;;;;;;;;;;;;30.58;41.30;100404.00;101814;1308;64609;-81
2023/07/21 01:59:46;;;;;;;;;;;;;;;30.58;41.34;100407.09;101910;1308;65969;-81
2023/07/21 02:02:11;;;;;;;;;;;;;;;30.57;41.34;100403.15;101799;1303;62455;-81
2023/07/21 02:04:38;;;;;;;;;;;;;;;30.57;41.30;100398.79;101856;1303;61403;-81
2023/07/21 02:07:04;;;;;;;;;;;;;;;30.57;41.34;100400.09;101860;1310;62599;-81
2023/07/21 02:09:30;;;;;;;;;;;;;;;30.57;41.22;100404.62;101794;1302;62555;-81
2023/07/21 02:11:55;;;;;;;;;;;;;;;30.57;41.44;100415.89;101851;1308;61519;-81
2023/07/21 02:14:22;;;;;;;;;;;;;;;30.57;41.35;100418.11;101868;1303;62063;-81
2023/07/21 02:16:47;;;;;;;;;;;;;;;30.57;41.41;100417.92;101808;1308;61649;-81
2023/07/21 02:19:13;;;;;;;;;;;;;;;30.57;41.27;100420.41;101853;1303;61461;-81
2023/07/21 02:21:38;;;;;;;;;;;;;;;30.57;41.21;100422.09;101822;1303;61919;-81
2023/07/21 02:24:04;;;;;;;;;;;;;;;30.57;41.18;100426.27;101757;1309;61501;-81
2023/07/21 02:26:29;;;;;;;;;;;;;;;30.57;41.40;100437.37;101743;1303;61466;-81
2023/07/21 02:28:55;;;;;;;;;;;;;;;30.56;41.33;100440.13;101824;1306;62043;-81
2023/07/21 02:31:21;;;;;;;;;;;;;;;30.57;41.34;100443.73;101809;1303;61565;-81
2023/07/21 02:33:47;;;;;;;;;;;;;;;30.56;41.44;100448.52;101804;1303;61431;-81
2023/07/21 02:36:13;;;;;;;;;;;;;;;30.56;41.32;100452.91;101786;1311;61450;-81
2023/07/21 02:38:39;;;;;;;;;;;;;;;30.56;41.46;100455.45;101762;1303;62270;-81
2023/07/21 02:41:04;;;;;;;;;;;;;;;30.55;41.39;100461.48;101795;1308;61486;-81
2023/07/21 02:43:33;;;;;;;;;;;;;;;30.56;41.31;100462.20;101824;1308;61728;-81
2023/07/21 02:45:58;;;;;;;;;;;;;;;30.56;41.46;100475.11;101809;1303;65777;-81
2023/07/21 02:48:24;;;;;;;;;;;;;;;30.55;41.35;100478.77;101836;1308;61816;-81
2023/07/21 02:50:50;;;;;;;;;;;;;;;30.55;41.44;100480.24;101862;1303;61540;-81
2023/07/21 02:53:16;;;;;;;;;;;;;;;30.55;41.53;100482.05;101826;1303;61938;-81
2023/07/21 02:55:42;;;;;;;;;;;;;;;30.55;41.41;100481.34;101805;1308;61883;-81
2023/07/21 02:58:07;;;;;;;;;;;;;;;30.55;41.55;100484.05;101785;1308;61854;-81
2023/07/21 03:00:33;;;;;;;;;;;;;;;30.54;41.49;100487.95;101951;1309;62138;-81
2023/07/21 03:02:59;;;;;;;;;;;;;;;30.55;41.38;100497.00;101741;1303;61488;-81
2023/07/21 03:05:24;;;;;;;;;;;;;;;30.55;41.45;100501.15;101895;1305;61509;-81
2023/07/21 03:07:49;;;;;;;;;;;;;;;30.55;41.36;100501.52;101855;1309;62890;-81
2023/07/21 03:10:16;;;;;;;;;;;;;;;30.54;41.70;100515.23;101916;1303;61439;-81
2023/07/21 03:12:42;;;;;;;;;;;;;;;30.54;41.56;100515.73;101778;1307;61885;-81
2023/07/21 03:15:09;;;;;;;;;;;;;;;30.54;41.63;100522.10;101844;1303;62658;-81
2023/07/21 03:17:35;;;;;;;;;;;;;;;30.54;41.59;100524.82;101861;1305;72213;-81
2023/07/21 03:20:01;;;;;;;;;;;;;;;30.55;41.65;100526.80;101959;1308;61418;-81
2023/07/21 03:22:26;;;;;;;;;;;;;;;30.54;41.45;100530.85;101810;1307;61804;-81
2023/07/21 03:24:52;;;;;;;;;;;;;;;30.54;41.61;100540.11;101790;1303;61748;-81
2023/07/21 03:27:17;;;;;;;;;;;;;;;30.54;41.43;100549.34;101776;1303;62295;-81
2023/07/21 03:29:44;;;;;;;;;;;;;;;30.55;41.58;100562.75;101830;1308;61427;-81
2023/07/21 03:32:09;;;;;;;;;;;;;;;30.54;41.53;100568.77;101819;1303;65962;-81
2023/07/21 03:34:37;;;;;;;;;;;;;;;30.54;41.62;100569.13;101813;1303;62959;-81
2023/07/21 03:37:04;;;;;;;;;;;;;;;30.54;41.53;100572.25;101881;1303;61649;-82
2023/07/21 03:39:30;;;;;;;;;;;;;;;30.54;41.54;100572.96;101757;1303;64827;-81
2023/07/21 03:41:56;;;;;;;;;;;;;;;30.55;41.57;100575.45;101768;1308;61437;-81
2023/07/21 03:44:22;;;;;;;;;;;;;;;30.55;41.69;100582.53;101802;1304;61326;-81
2023/07/21 03:46:47;;;;;;;;;;;;;;;30.54;41.60;100584.55;101786;1303;61759;-81
2023/07/21 03:49:13;;;;;;;;;;;;;;;30.54;41.69;100584.37;101769;1303;61418;-81
2023/07/21 03:51:40;;;;;;;;;;;;;;;30.54;41.58;100589.98;101784;1309;61937;-81
2023/07/21 03:54:05;;;;;;;;;;;;;;;30.54;41.63;100587.67;101877;1303;65889;-82
2023/07/21 03:56:31;;;;;;;;;;;;;;;30.54;41.52;100588.83;102015;1306;61518;-82
2023/07/21 03:58:58;;;;;;;;;;;;;;;30.53;41.61;100595.69;101821;1308;62192;-83
2023/07/21 04:01:24;;;;;;;;;;;;;;;30.50;41.52;100597.81;101796;1303;61380;-82
2023/07/21 04:03:50;;;;;;;;;;;;;;;30.48;41.44;100601.52;101794;1303;61432;-82
2023/07/21 04:06:17;;;;;;;;;;;;;;;30.46;41.41;100600.84;101795;1303;61438;-82
2023/07/21 04:08:43;;;;;;;;;;;;;;;30.43;41.36;100604.86;101821;1306;61309;-83
2023/07/21 04:11:09;;;;;;;;;;;;;;;30.42;41.29;100606.24;101776;1303;62102;-83
2023/07/21 04:13:34;;;;;;;;;;;;;;;30.41;41.27;100605.86;101768;1302;61432;-83
2023/07/21 04:15:59;;;;;;;;;;;;;;;30.40;41.25;100610.72;101824;1303;62677;-82
2023/07/21 04:18:25;;;;;;;;;;;;;;;30.36;41.26;100605.19;101795;1308;61464;-82
2023/07/21 04:20:51;;;;;;;;;;;;;;;30.34;41.14;100611.25;102020;1302;61473;-83
2023/07/21 04:23:16;;;;;;;;;;;;;;;30.31;40.99;100609.53;101729;1308;62594;-82
2023/07/21 04:25:41;;;;;;;;;;;;;;;30.28;40.93;100617.90;101830;1308;61496;-82
2023/07/21 04:28:07;;;;;;;;;;;;;;;30.25;40.86;100620.88;101912;1303;62640;-82
2023/07/21 04:30:33;;;;;;;;;;;;;;;30.23;40.91;100625.00;101845;1303;61566;-83
2023/07/21 04:32:59;;;;;;;;;;;;;;;30.21;40.75;100627.23;101774;1303;61419;-82
2023/07/21 04:35:26;;;;;;;;;;;;;;;30.19;40.68;100632.54;101853;1307;61815;-82
2023/07/21 04:37:52;;;;;;;;;;;;;;;30.18;40.54;100639.38;101818;1303;61454;-83
2023/07/21 04:40:20;;;;;;;;;;;;;;;30.16;40.79;100643.16;101822;1306;61425;-83
2023/07/21 04:42:46;;;;;;;;;;;;;;;30.14;40.66;100640.86;101866;1308;61352;-83
2023/07/21 04:45:11;;;;;;;;;;;;;;;30.13;40.59;100639.67;101919;1302;61822;-82
2023/07/21 04:47:38;;;;;;;;;;;;;;;30.12;40.50;100642.44;101860;1303;61479;-82
2023/07/21 04:50:03;;;;;;;;;;;;;;;30.11;40.40;100640.52;101867;1308;61394;-82
2023/07/21 04:52:29;;;;;;;;;;;;;;;30.09;40.35;100639.43;101979;1303;61444;-82
2023/07/21 04:54:54;;;;;;;;;;;;;;;30.08;40.29;100644.23;101774;1308;61508;-82
2023/07/21 04:57:20;;;;;;;;;;;;;;;30.06;40.28;100649.92;101973;1303;61441;-82
2023/07/21 04:59:46;;;;;;;;;;;;;;;30.03;40.18;100648.46;101781;1303;61336;-82
2023/07/21 05:02:11;;;;;;;;;;;;;;;30.01;40.22;100651.63;101972;1317;61485;-82
2023/07/21 05:04:37;;;;;;;;;;;;;;;29.98;39.92;100657.41;102403;1303;61323;-82
2023/07/21 05:07:04;;;;;;;;;;;;;;;29.93;39.96;100663.48;102632;1303;61778;-82
2023/07/21 05:09:30;;;;;;;;;;;;;;;29.90;39.98;100665.56;102060;1305;61416;-82
2023/07/21 05:11:56;;;;;;;;;;;;;;;29.87;39.88;100669.61;102030;1302;61896;-82
2023/07/21 05:14:22;;;;;;;;;;;;;;;29.88;39.98;100669.13;101869;1308;61508;-82
2023/07/21 05:16:48;;;;;;;;;;;;;;;29.87;39.92;100668.69;102051;1303;62459;-82
2023/07/21 05:19:14;;;;;;;;;;;;;;;29.86;39.75;100666.13;102168;1303;61447;-82
2023/07/21 05:21:39;;;;;;;;;;;;;;;29.82;39.71;100665.77;101945;1302;65956;-82
2023/07/21 05:24:05;;;;;;;;;;;;;;;29.79;39.72;100666.32;101866;1303;61435;-82
2023/07/21 05:26:33;;;;;;;;;;;;;;;29.79;39.65;100665.77;101951;1303;61535;-82
2023/07/21 05:28:58;;;;;;;;;;;;;;;29.80;39.58;100669.88;101946;1305;61456;-82
2023/07/21 05:31:24;;;;;;;;;;;;;;;29.80;39.78;100667.13;101856;1303;61433;-82
2023/07/21 05:33:52;;;;;;;;;;;;;;;29.78;39.60;100668.45;102025;1303;61448;-82
2023/07/21 05:36:17;;;;;;;;;;;;;;;29.76;39.59;100668.84;102034;1303;62033;-82
2023/07/21 05:38:43;;;;;;;;;;;;;;;29.77;39.41;100670.75;101948;1302;61418;-82
2023/07/21 05:41:08;;;;;;;;;;;;;;;29.78;39.48;100676.92;102146;1303;61447;-82
2023/07/21 05:43:34;;;;;;;;;;;;;;;29.83;39.61;100684.77;101999;1308;61499;-82
2023/07/21 05:46:02;;;;;;;;;;;;;;;29.86;39.43;100684.11;101975;1304;61403;-82
2023/07/21 05:48:27;;;;;;;;;;;;;;;29.87;39.34;100681.76;101990;1308;62212;-82
2023/07/21 05:50:53;;;;;;;;;;;;;;;29.88;39.20;100681.85;101941;1303;61431;-82
2023/07/21 05:53:19;;;;;;;;;;;;;;;29.87;39.26;100678.83;101841;1306;62685;-82
2023/07/21 05:55:46;;;;;;;;;;;;;;;29.86;39.14;100679.51;102024;1303;61447;-82
2023/07/21 05:58:11;;;;;;;;;;;;;;;29.87;39.08;100682.11;102417;1306;61536;-82
2023/07/21 06:00:39;;;;;;;;;;;;;;;29.88;39.17;100687.29;102065;1307;61454;-82
2023/07/21 06:03:07;;;;;;;;;;;;;;;29.89;39.10;100687.50;102063;1303;61729;-82
2023/07/21 06:05:32;;;;;;;;;;;;;;;29.91;39.05;100690.96;102300;1303;61313;-82
2023/07/21 06:07:58;;;;;;;;;;;;;;;29.91;38.94;100692.20;102460;1302;61967;-82
2023/07/21 06:10:23;;;;;;;;;;;;;;;29.92;39.14;100691.55;102217;1303;61388;-82
2023/07/21 06:12:50;;;;;;;;;;;;;;;29.94;38.88;100688.48;101998;1303;61512;-82
2023/07/21 06:15:15;;;;;;;;;;;;;;;29.97;39.05;100692.52;102095;1302;61364;-82
2023/07/21 06:17:41;;;;;;;;;;;;;;;29.98;38.84;100695.27;102341;1304;61434;-82
2023/07/21 06:20:10;;;;;;;;;;;;;;;29.99;38.97;100691.88;102283;1303;61397;-82
2023/07/21 06:22:36;;;;;;;;;;;;;;;30.01;38.75;100690.08;102196;1303;63758;-82
2023/07/21 06:25:03;;;;;;;;;;;;;;;30.02;38.70;100692.69;101929;1308;61498;-82
2023/07/21 06:27:29;;;;;;;;;;;;;;;30.03;38.74;100692.33;102393;1303;61314;-82
2023/07/21 06:29:54;;;;;;;;;;;;;;;30.03;38.78;100690.35;102401;1306;62105;-82
2023/07/21 06:32:20;;;;;;;;;;;;;;;30.02;38.65;100690.52;102222;1303;62216;-83
2023/07/21 06:34:47;;;;;;;;;;;;;;;30.00;38.66;100690.14;102350;1303;61425;-82
2023/07/21 06:37:13;;;;;;;;;;;;;;;30.00;38.71;100691.80;102248;1303;61672;-82
2023/07/21 06:39:39;;;;;;;;;;;;;;;30.01;38.67;100687.02;102466;1303;61437;-82
2023/07/21 06:42:04;;;;;;;;;;;;;;;30.02;38.53;100696.09;102322;1306;61855;-82
2023/07/21 06:44:31;;;;;;;;;;;;;;;30.03;38.42;100690.52;102081;1305;64886;-82
2023/07/21 06:46:57;;;;;;;;;;;;;;;30.04;38.62;100693.20;102108;1304;65697;-82
2023/07/21 06:49:22;;;;;;;;;;;;;;;30.04;38.54;100687.82;103011;1305;61453;-83
2023/07/21 06:51:48;;;;;;;;;;;;;;;30.07;38.52;100692.85;102136;1303;61393;-82
2023/07/21 06:54:13;;;;;;;;;;;;;;;30.08;38.50;100687.20;102432;1306;61424;-82
2023/07/21 06:56:39;;;;;;;;;;;;;;;30.10;38.40;100685.02;102483;1302;61419;-82
2023/07/21 06:59:05;;;;;;;;;;;;;;;30.12;38.28;100685.89;102373;1303;64379;-82
2023/07/21 07:01:30;;;;;;;;;;;;;;;30.14;38.35;100687.50;102035;1303;62128;-82
2023/07/21 07:03:56;;;;;;;;;;;;;;;30.14;38.17;100683.73;102243;1303;61412;-82
2023/07/21 07:06:23;;;;;;;;;;;;;;;30.12;38.30;100681.59;102420;1303;62074;-82
2023/07/21 07:08:48;;;;;;;;;;;;;;;30.12;38.31;100679.41;102610;1308;61339;-82
2023/07/21 07:11:14;;;;;;;;;;;;;;;30.12;38.39;100683.77;102094;1305;600906;-83
2023/07/21 07:13:39;;;;;;;;;;;;;;;30.12;38.17;100683.52;102166;1302;61438;-83
2023/07/21 07:16:05;;;;;;;;;;;;;;;30.13;38.10;100690.91;102246;1302;61774;-82
2023/07/21 07:18:31;;;;;;;;;;;;;;;30.07;38.28;100682.10;102058;1306;61968;-82
2023/07/21 07:20:57;;;;;;;;;;;;;;;30.02;38.07;100687.05;102023;1305;61438;-82
2023/07/21 07:23:22;;;;;;;;;;;;;;;30.02;38.02;100691.36;102052;1303;61511;-82
2023/07/21 07:25:51;;;;;;;;;;;;;;;30.05;38.14;100691.27;102168;1303;61417;-82
2023/07/21 07:28:17;;;;;;;;;;;;;;;30.07;38.11;100686.29;101947;1306;61530;-82
2023/07/21 07:30:43;;;;;;;;;;;;;;;30.07;38.08;100685.91;101902;1309;62716;-82
2023/07/21 07:33:08;;;;;;;;;;;;;;;30.05;37.87;100689.08;101975;1303;61489;-82
2023/07/21 07:35:34;;;;;;;;;;;;;;;30.02;38.09;100687.38;102106;1303;61397;-82
2023/07/21 07:38:00;;;;;;;;;;;;;;;30.03;38.09;100683.64;102887;1305;61457;-82
2023/07/21 07:40:26;;;;;;;;;;;;;;;30.02;37.83;100685.75;102477;1303;61317;-82
2023/07/21 07:42:51;;;;;;;;;;;;;;;29.99;37.93;100687.02;102422;1303;61483;-82
2023/07/21 07:45:17;;;;;;;;;;;;;;;30.01;37.93;100680.77;102238;1303;61429;-82
2023/07/21 07:47:44;;;;;;;;;;;;;;;30.03;38.05;100683.98;102351;1303;61450;-82
2023/07/21 07:50:10;;;;;;;;;;;;;;;30.03;37.63;100680.35;102458;1303;61425;-83
2023/07/21 07:52:36;;;;;;;;;;;;;;;30.03;37.66;100683.13;102112;1303;62543;-82
2023/07/21 07:55:02;;;;;;;;;;;;;;;30.04;37.56;100680.30;102209;1308;61498;-82
2023/07/21 07:57:28;;;;;;;;;;;;;;;30.07;37.63;100677.58;102492;1308;63073;-83
2023/07/21 07:59:53;;;;;;;;;;;;;;;30.09;37.52;100683.87;102230;1302;61403;-82
2023/07/21 08:02:19;;;;;;;;;;;;;;;30.11;37.48;100684.92;102112;1303;64293;-82
2023/07/21 08:04:44;;;;;;;;;;;;;;;30.14;37.38;100694.20;102320;1305;61294;-82
2023/07/21 08:07:10;;;;;;;;;;;;;;;30.16;37.23;100696.92;102184;1303;61460;-82
2023/07/21 08:09:36;;;;;;;;;;;;;;;30.17;37.15;100696.27;102028;1303;61349;-82
2023/07/21 08:12:01;;;;;;;;;;;;;;;30.18;37.24;100690.15;102074;1302;61958;-82
2023/07/21 08:14:27;;;;;;;;;;;;;;;30.18;37.08;100692.84;102315;1305;61355;-82
2023/07/21 08:16:52;;;;;;;;;;;;;;;30.20;37.04;100692.32;102398;1303;61405;-82
2023/07/21 08:19:19;;;;;;;;;;;;;;;30.21;37.06;100695.09;102371;1302;61381;-83
2023/07/21 08:21:47;;;;;;;;;;;;;;;30.22;36.86;100700.89;102425;1302;61574;-83
2023/07/21 08:24:14;;;;;;;;;;;;;;;30.23;36.76;100700.25;102810;1302;61431;-82
2023/07/21 08:26:40;;;;;;;;;;;;;;;30.25;36.91;100698.98;102537;1305;63993;-82
2023/07/21 08:29:08;;;;;;;;;;;;;;;30.25;36.88;100702.70;102431;1303;61472;-82
2023/07/21 08:31:34;;;;;;;;;;;;;;;30.27;36.77;100700.55;102305;1303;62491;-82
2023/07/21 08:34:00;;;;;;;;;;;;;;;30.29;36.68;100700.77;102511;1303;61367;-83
2023/07/21 08:36:25;;;;;;;;;;;;;;;30.29;36.67;100700.40;102389;1302;61425;-83
2023/07/21 08:38:51;;;;;;;;;;;;;;;30.28;36.72;100701.35;102910;1304;61339;-82
2023/07/21 08:41:17;;;;;;;;;;;;;;;30.29;36.54;100703.61;102772;1305;61345;-82
2023/07/21 08:43:43;;;;;;;;;;;;;;;30.32;36.76;100708.23;103048;1303;61416;-82
2023/07/21 08:46:09;;;;;;;;;;;;;;;30.34;36.71;100713.02;102508;1302;61518;-82
2023/07/21 08:48:34;;;;;;;;;;;;;;;30.37;36.80;100712.89;102404;1307;61294;-82
2023/07/21 08:51:00;;;;;;;;;;;;;;;30.39;36.74;100706.54;102626;1308;61517;-82
2023/07/21 08:53:26;;;;;;;;;;;;;;;30.40;36.67;100710.11;102402;1303;61390;-82
2023/07/21 08:55:52;;;;;;;;;;;;;;;30.42;36.73;100714.77;102240;1307;61538;-81
2023/07/21 08:58:18;;;;;;;;;;;;;;;30.45;36.69;100715.27;102022;1303;61403;-81
2023/07/21 09:00:43;;;;;;;;;;;;;;;30.46;36.76;100717.31;102209;1305;61297;-82
2023/07/21 09:03:08;;;;;;;;;;;;;;;30.48;36.68;100720.96;102061;1302;62658;-82
2023/07/21 09:05:34;;;;;;;;;;;;;;;30.49;36.96;100720.16;101970;1303;61589;-81
2023/07/21 09:07:59;;;;;;;;;;;;;;;30.49;36.93;100720.10;102021;1303;62783;-81
2023/07/21 09:10:29;;;;;;;;;;;;;;;30.50;36.69;100726.50;101953;1303;61422;-81
2023/07/21 09:12:55;;;;;;;;;;;;;;;30.51;36.84;100722.40;102277;1302;63923;-81
2023/07/21 09:15:20;;;;;;;;;;;;;;;30.51;36.83;100720.19;102039;1303;61416;-81
2023/07/21 09:17:46;;;;;;;;;;;;;;;30.52;36.72;100729.41;102184;1302;61360;-82
2023/07/21 09:20:12;;;;;;;;;;;;;;;30.52;36.74;100722.61;102253;1303;62634;-81
2023/07/21 09:22:38;;;;;;;;;;;;;;;30.53;36.67;100716.37;102353;1308;61344;-81
2023/07/21 09:25:04;;;;;;;;;;;;;;;30.53;36.65;100715.63;102282;1301;61516;-81
2023/07/21 09:27:29;;;;;;;;;;;;;;;30.54;36.80;100715.93;102470;1303;65717;-81
2023/07/21 09:29:59;;;;;;;;;;;;;;;30.55;36.74;100708.95;102485;1303;61435;-81
2023/07/21 09:32:24;;;;;;;;;;;;;;;30.55;36.82;100710.85;102126;1305;61389;-81
2023/07/21 09:34:56;;;;;;;;;;;;;;;30.55;36.85;100711.20;102465;1303;61415;-81
2023/07/21 09:37:22;;;;;;;;;;;;;;;30.56;36.73;100703.30;102172;1303;65957;-81
2023/07/21 09:39:50;;;;;;;;;;;;;;;30.57;36.62;100703.73;102481;1303;61358;-82
2023/07/21 09:42:16;;;;;;;;;;;;;;;30.57;36.73;100700.47;102549;1303;61964;-82
2023/07/21 09:44:41;;;;;;;;;;;;;;;30.57;36.76;100701.35;102668;1303;62789;-81
2023/07/21 09:47:07;;;;;;;;;;;;;;;30.58;36.68;100698.04;102350;1307;61523;-81
2023/07/21 09:49:32;;;;;;;;;;;;;;;30.58;36.61;100693.45;102194;1303;63003;-81
2023/07/21 09:51:58;;;;;;;;;;;;;;;30.58;36.72;100694.54;102082;1306;61434;-81
2023/07/21 09:54:24;;;;;;;;;;;;;;;30.59;36.79;100697.19;101983;1302;61498;-81
2023/07/21 09:56:50;;;;;;;;;;;;;;;30.59;36.72;100689.34;101932;1308;61432;-81
2023/07/21 09:59:15;;;;;;;;;;;;;;;30.59;36.67;100684.66;101835;1303;61765;-81
2023/07/21 10:01:40;;;;;;;;;;;;;;;30.59;36.70;100685.70;101888;1303;61523;-81
2023/07/21 10:04:06;;;;;;;;;;;;;;;30.58;36.76;100688.84;101913;1302;61489;-81
2023/07/21 10:06:32;;;;;;;;;;;;;;;30.58;36.59;100682.14;101942;1302;61925;-82
2023/07/21 10:08:58;;;;;;;;;;;;;;;30.58;36.61;100677.69;101879;1303;64799;-81
2023/07/21 10:11:23;;;;;;;;;;;;;;;30.58;36.63;100681.25;101831;1308;61499;-81
2023/07/21 10:13:49;;;;;;;;;;;;;;;30.58;36.67;100679.11;101894;1302;62002;-81
2023/07/21 10:16:15;;;;;;;;;;;;;;;30.59;36.67;100674.13;101966;1303;61402;-81
2023/07/21 10:18:59;;;;;;;;;;;;;;;30.58;36.61;100664.62;102326;1303;61496;-81
2023/07/21 10:21:45;;;;;;;;;;;;;;;30.58;36.66;100660.42;102338;1303;66860;-81
2023/07/21 10:24:11;;;;;;;;;;;;;;;30.57;36.72;100656.67;102161;1303;62604;-81
2023/07/21 10:26:36;;;;;;;;;;;;;;;30.58;36.73;100656.98;102035;1308;61406;-81
2023/07/21 10:29:15;;;;;;;;;;;;;;;30.58;36.72;100653.30;102037;1303;61989;-81
2023/07/21 10:31:49;;;;;;;;;;;;;;;30.59;36.64;100651.23;102133;1308;65786;-81
2023/07/21 10:34:16;;;;;;;;;;;;;;;30.59;36.71;100655.45;101962;1308;61305;-81
2023/07/21 10:36:49;;;;;;;;;;;;;;;30.59;36.73;100653.23;101891;1303;61920;-81
2023/07/21 10:39:16;;;;;;;;;;;;;;;30.59;36.70;100651.21;101833;1303;64057;-81
2023/07/21 10:41:42;;;;;;;;;;;;;;;30.59;36.65;100649.04;101930;1302;66798;-81
2023/07/21 10:44:09;;;;;;;;;;;;;;;30.59;36.66;100651.22;101954;1308;61340;-81
2023/07/21 10:46:37;;;;;;;;;;;;;;;30.59;36.66;100651.89;101871;1302;61409;-81
2023/07/21 10:49:02;;;;;;;;;;;;;;;30.59;36.71;100645.02;101835;1305;63846;-81
2023/07/21 10:51:28;;;;;;;;;;;;;;;30.59;36.77;100647.06;101758;1309;61922;-81
2023/07/21 10:53:54;;;;;;;;;;;;;;;30.59;36.77;100636.51;101784;1303;61483;-81
2023/07/21 10:56:21;;;;;;;;;;;;;;;30.58;36.69;100630.92;101818;1303;61463;-81
2023/07/21 10:58:46;;;;;;;;;;;;;;;30.59;36.74;100637.80;101809;1303;61830;-81
2023/07/21 11:01:12;;;;;;;;;;;;;;;30.58;36.81;100635.29;101768;1303;61585;-81
2023/07/21 11:03:41;;;;;;;;;;;;;;;30.58;36.68;100636.38;101950;1303;63372;-81
2023/07/21 11:06:06;;;;;;;;;;;;;;;30.58;36.75;100632.59;101801;1306;61400;-81
2023/07/21 11:08:32;;;;;;;;;;;;;;;30.58;36.89;100630.79;101789;1302;62559;-81
2023/07/21 11:10:57;;;;;;;;;;;;;;;30.58;36.76;100640.05;101818;1306;61454;-82
2023/07/21 11:13:24;;;;;;;;;;;;;;;30.58;36.79;100637.67;101841;1303;61438;-82
2023/07/21 11:15:55;;;;;;;;;;;;;;;30.58;36.72;100637.70;101764;1303;62077;-81
2023/07/21 11:18:21;;;;;;;;;;;;;;;30.58;36.87;100632.80;101976;1303;61381;-81
2023/07/21 11:20:51;;;;;;;;;;;;;;;30.58;36.86;100634.58;101886;1303;61441;-81
2023/07/21 11:23:18;;;;;;;;;;;;;;;30.58;36.85;100630.80;101857;1308;65604;-81
2023/07/21 11:26:06;;;;;;;;;;;;;;;30.58;36.83;100627.33;101848;1303;61418;-81
2023/07/21 11:28:32;;;;;;;;;;;;;;;30.59;36.92;100623.81;101832;1303;62171;-81
2023/07/21 11:31:00;;;;;;;;;;;;;;;30.59;36.89;100618.19;101800;1303;61942;-81
2023/07/21 11:33:47;;;;;;;;;;;;;;;30.59;36.96;100614.70;101800;1302;66058;-81
2023/07/21 11:36:13;;;;;;;;;;;;;;;30.59;36.91;100609.06;101825;1303;61960;-81
2023/07/21 11:38:38;;;;;;;;;;;;;;;30.59;36.93;100600.17;101945;1307;61443;-81
2023/07/21 11:41:07;;;;;;;;;;;;;;;30.59;36.80;100603.74;101807;1302;61632;-81
2023/07/21 11:43:45;;;;;;;;;;;;;;;30.60;36.79;100603.54;101794;1303;66741;-81
2023/07/21 11:46:20;;;;;;;;;;;;;;;30.60;37.02;100597.38;101866;1303;61293;-81
2023/07/21 11:48:48;;;;;;;;;;;;;;;30.60;37.01;100596.26;101927;1303;61423;-81
2023/07/21 11:51:13;;;;;;;;;;;;;;;30.61;37.00;100597.29;101781;1303;63727;-81
2023/07/21 11:53:44;;;;;;;;;;;;;;;30.61;37.01;100592.52;101747;1308;66958;-81
2023/07/21 11:56:10;;;;;;;;;;;;;;;30.61;36.99;100588.88;101900;1303;61338;-82
2023/07/21 11:58:35;;;;;;;;;;;;;;;30.62;36.99;100576.80;101836;1308;62343;-82
2023/07/21 12:01:01;;;;;;;;;;;;;;;30.62;36.99;100581.84;101741;1303;61486;-82
2023/07/21 12:03:26;;;;;;;;;;;;;;;30.62;36.99;100581.33;101879;1303;62581;-82
2023/07/21 12:05:53;;;;;;;;;;;;;;;30.62;37.12;100580.05;101857;1303;62684;-82
2023/07/21 12:08:18;;;;;;;;;;;;;;;30.63;37.12;100578.30;101809;1303;61772;-82
2023/07/21 12:10:44;;;;;;;;;;;;;;;30.63;37.04;100575.91;101892;1306;61442;-82
2023/07/21 12:13:09;;;;;;;;;;;;;;;30.64;37.05;100578.23;101826;1302;62686;-82
2023/07/21 12:15:35;;;;;;;;;;;;;;;30.63;37.07;100577.34;101985;1303;61415;-82
2023/07/21 12:18:00;;;;;;;;;;;;;;;30.65;37.12;100573.95;101900;1308;62026;-82
2023/07/21 12:20:26;;;;;;;;;;;;;;;30.65;37.16;100569.95;101788;1306;61911;-82